Dryden, Canada
Current Conditions -  °F | °C
As of 5:43 PM on Saturday 20 Dec 2014 (Local Time) from CYHD Reporting Station
Haze Haze  
Wind Chill: 18°   Ceiling: 1500
Heat Index: 27°   Visibility: 3mi
Dew Point: 27°   Wind: 8mph
Humidity: 100%   Direction: 170°S
Pressure: 29.98"   Gusts: NA
Location:  49.78°N, 92.84°W
Report Text: CYHD 202343Z AUTO 17007KT 3SM BR SCT004 OVC015 M03/M03 A2998 RMK SLP180
Loading
Personal Weather Stations






























Interactive Weather Map New forecast layout! Learn more

10-Day Weather Forecast

Advertisements
Track Severe Weather on mobile